createdAt,value
2019-06-01T00:00:10.278Z,1015.93
2019-06-01T00:00:56.325Z,1015.89
2019-06-01T00:01:55.353Z,1015.89
2019-06-01T00:02:57.138Z,1015.90
2019-06-01T00:03:55.288Z,1015.88
2019-06-01T00:04:55.278Z,1015.91
2019-06-01T00:05:55.268Z,1015.95
2019-06-01T00:06:55.298Z,1015.95
2019-06-01T00:07:55.243Z,1015.92
2019-06-01T00:08:55.232Z,1015.90
2019-06-01T00:09:55.234Z,1015.94
2019-06-01T00:10:55.211Z,1015.92
2019-06-01T00:11:55.204Z,1015.93
2019-06-01T00:12:55.231Z,1015.95
2019-06-01T00:13:55.192Z,1015.96
2019-06-01T00:14:55.166Z,1015.90
2019-06-01T00:15:55.176Z,1016.00
2019-06-01T00:16:55.144Z,1015.92
2019-06-01T00:17:55.182Z,1015.90
2019-06-01T00:18:55.121Z,1015.92
2019-06-01T00:19:55.172Z,1015.92
2019-06-01T00:20:55.100Z,1015.91
2019-06-01T00:21:55.089Z,1015.95
2019-06-01T00:22:55.079Z,1015.93
2019-06-01T00:23:55.066Z,1015.92
2019-06-01T00:24:55.066Z,1015.88
2019-06-01T00:25:55.090Z,1015.95
2019-06-01T00:26:55.072Z,1015.96
2019-06-01T00:27:55.040Z,1015.94
2019-06-01T00:28:55.015Z,1015.95
2019-06-01T00:29:54.997Z,1015.97
2019-06-01T00:30:55.042Z,1015.92
2019-06-01T00:31:55.035Z,1015.93
2019-06-01T00:32:54.966Z,1015.93
2019-06-01T00:33:54.953Z,1015.91
2019-06-01T00:34:54.942Z,1015.91
2019-06-01T00:35:54.933Z,1015.92
2019-06-01T00:36:54.981Z,1015.89
2019-06-01T00:37:54.907Z,1015.94
2019-06-01T00:38:54.896Z,1015.92
2019-06-01T00:39:54.941Z,1015.90
2019-06-01T00:40:54.875Z,1015.89
2019-06-01T00:41:54.862Z,1015.91
2019-06-01T00:42:54.897Z,1015.89
2019-06-01T00:43:54.841Z,1015.90
2019-06-01T00:44:54.890Z,1015.89
2019-06-01T00:45:54.835Z,1015.91
2019-06-01T00:46:54.807Z,1015.88
2019-06-01T00:47:54.794Z,1015.90
2019-06-01T00:48:54.783Z,1015.91
2019-06-01T00:49:54.775Z,1015.92
2019-06-01T00:50:54.830Z,1015.93
2019-06-01T00:51:54.750Z,1015.92
2019-06-01T00:52:54.740Z,1015.89
2019-06-01T00:53:54.728Z,1015.95
2019-06-01T00:54:54.717Z,1015.92
2019-06-01T00:55:54.758Z,1015.95
2019-06-01T00:56:54.696Z,1015.95
2019-06-01T00:57:54.685Z,1015.94
2019-06-01T00:58:54.683Z,1015.98
2019-06-01T00:59:55.116Z,1015.94
2019-06-01T01:00:55.233Z,1015.96
2019-06-01T01:01:54.640Z,1015.97
2019-06-01T01:02:54.684Z,1015.96
2019-06-01T01:03:54.618Z,1015.90
2019-06-01T01:04:54.605Z,1015.91
2019-06-01T01:05:54.908Z,1015.91
2019-06-01T01:06:54.863Z,1015.90
2019-06-01T01:07:55.111Z,1015.94
2019-06-01T01:08:55.205Z,1015.87
2019-06-01T01:09:55.025Z,1015.88
2019-06-01T01:10:55.106Z,1015.89
2019-06-01T01:11:55.321Z,1015.89
2019-06-01T01:12:55.190Z,1015.93
2019-06-01T01:13:55.383Z,1015.88
2019-06-01T01:14:55.384Z,1015.91
2019-06-01T01:15:55.556Z,1015.88
2019-06-01T01:16:55.666Z,1015.90
2019-06-01T01:17:54.464Z,1015.91
2019-06-01T01:18:54.448Z,1015.92
2019-06-01T01:19:54.436Z,1015.89
2019-06-01T01:20:54.466Z,1015.90
2019-06-01T01:21:54.415Z,1015.94
2019-06-01T01:22:54.454Z,1015.93
2019-06-01T01:23:54.746Z,1015.96
2019-06-01T01:24:54.638Z,1015.94
2019-06-01T01:25:54.623Z,1015.94
2019-06-01T01:26:54.713Z,1015.98
2019-06-01T01:27:54.851Z,1015.97
2019-06-01T01:28:54.946Z,1015.99
2019-06-01T01:29:55.018Z,1015.99
2019-06-01T01:31:06.651Z,1015.99
2019-06-01T01:31:55.395Z,1015.92
2019-06-01T01:32:55.675Z,1016.01
2019-06-01T01:33:55.433Z,1015.97
2019-06-01T01:34:55.325Z,1015.94
2019-06-01T01:35:54.312Z,1015.92
2019-06-01T01:36:54.423Z,1015.95
2019-06-01T01:37:54.235Z,1015.92
2019-06-01T01:38:54.415Z,1015.95
2019-06-01T01:39:54.295Z,1015.92
2019-06-01T01:40:54.247Z,1015.94
2019-06-01T01:41:54.316Z,1015.93
2019-06-01T01:42:54.421Z,1015.93
2019-06-01T01:43:54.633Z,1015.97
2019-06-01T01:44:54.642Z,1015.98
2019-06-01T01:45:54.819Z,1016.01
2019-06-01T01:46:54.862Z,1015.92
2019-06-01T01:47:55.084Z,1015.95
2019-06-01T01:48:54.307Z,1015.92
2019-06-01T01:49:54.148Z,1015.93
2019-06-01T01:50:54.369Z,1015.92
2019-06-01T01:51:55.332Z,1015.96
2019-06-01T01:52:54.801Z,1015.95
2019-06-01T01:53:54.713Z,1015.95
2019-06-01T01:54:54.744Z,1015.95
2019-06-01T01:55:55.193Z,1015.94
2019-06-01T01:56:54.190Z,1015.92
2019-06-01T01:57:55.229Z,1015.93
2019-06-01T01:58:54.299Z,1015.91
2019-06-01T01:59:55.292Z,1015.91
2019-06-01T02:00:54.627Z,1015.92
2019-06-01T02:01:54.648Z,1015.95
2019-06-01T02:02:54.147Z,1015.92
2019-06-01T02:03:55.325Z,1015.94
2019-06-01T02:04:53.933Z,1015.94
2019-06-01T02:05:54.908Z,1015.98
2019-06-01T02:06:54.026Z,1015.94
2019-06-01T02:07:54.929Z,1015.95
2019-06-01T02:08:55.061Z,1015.95
2019-06-01T02:09:55.187Z,1015.92
2019-06-01T02:10:53.865Z,1015.93
2019-06-01T02:11:53.856Z,1015.92
2019-06-01T02:12:53.841Z,1015.90
2019-06-01T02:13:53.830Z,1015.88
2019-06-01T02:14:53.854Z,1015.89
2019-06-01T02:15:54.165Z,1015.89
2019-06-01T02:16:53.985Z,1015.83
2019-06-01T02:17:53.940Z,1015.83
2019-06-01T02:18:54.394Z,1015.85
2019-06-01T02:19:54.107Z,1015.86
2019-06-01T02:20:54.394Z,1015.84
2019-06-01T02:21:54.476Z,1015.80
2019-06-01T02:22:54.680Z,1015.76
2019-06-01T02:23:54.819Z,1015.79
2019-06-01T02:24:53.827Z,1015.82
2019-06-01T02:25:54.845Z,1015.80
2019-06-01T02:26:55.002Z,1015.84
2019-06-01T02:27:54.970Z,1015.85
2019-06-01T02:28:53.663Z,1015.88
2019-06-01T02:29:53.684Z,1015.84
2019-06-01T02:30:54.033Z,1015.84
2019-06-01T02:31:54.678Z,1015.80
2019-06-01T02:32:53.887Z,1015.83
2019-06-01T02:33:53.829Z,1015.82
2019-06-01T02:34:54.309Z,1015.87
2019-06-01T02:35:54.425Z,1015.87
2019-06-01T02:36:54.314Z,1015.88
2019-06-01T02:37:54.680Z,1015.94
2019-06-01T02:38:54.628Z,1015.90
2019-06-01T02:39:54.287Z,1015.87
2019-06-01T02:40:54.848Z,1015.84
2019-06-01T02:41:54.957Z,1015.87
2019-06-01T02:42:55.005Z,1015.86
2019-06-01T02:43:54.705Z,1015.90
2019-06-01T02:44:54.974Z,1015.86
2019-06-01T02:45:53.470Z,1015.88
2019-06-01T02:46:55.263Z,1015.87
2019-06-01T02:47:55.248Z,1015.88
2019-06-01T02:48:53.442Z,1015.87
2019-06-01T02:49:53.429Z,1015.88
2019-06-01T02:50:53.447Z,1015.86
2019-06-01T02:51:53.411Z,1015.86
2019-06-01T02:52:53.393Z,1015.83
2019-06-01T02:53:53.381Z,1015.87
2019-06-01T02:54:53.370Z,1015.84
2019-06-01T02:55:53.402Z,1015.83
2019-06-01T02:56:53.345Z,1015.84
2019-06-01T02:57:53.339Z,1015.91
2019-06-01T02:58:53.324Z,1015.85
2019-06-01T02:59:53.313Z,1015.82
2019-06-01T03:00:53.302Z,1015.86
2019-06-01T03:01:57.171Z,1015.85
2019-06-01T03:02:54.278Z,1015.86
2019-06-01T03:03:53.271Z,1015.87
2019-06-01T03:04:53.254Z,1015.82
2019-06-01T03:05:53.243Z,1015.90
2019-06-01T03:06:53.232Z,1015.90
2019-06-01T03:07:53.251Z,1015.86
2019-06-01T03:08:53.241Z,1015.79
2019-06-01T03:09:53.197Z,1015.84
2019-06-01T03:10:53.189Z,1015.88
2019-06-01T03:11:53.213Z,1015.81
2019-06-01T03:12:53.167Z,1015.79
2019-06-01T03:13:53.155Z,1015.77
2019-06-01T03:14:53.171Z,1015.79
2019-06-01T03:15:53.131Z,1015.78
2019-06-01T03:16:53.121Z,1015.78
2019-06-01T03:17:53.140Z,1015.74
2019-06-01T03:18:53.100Z,1015.77
2019-06-01T03:19:53.118Z,1015.79
2019-06-01T03:20:53.073Z,1015.80
2019-06-01T03:21:53.064Z,1015.79
2019-06-01T03:22:53.054Z,1015.79
2019-06-01T03:23:53.038Z,1015.77
2019-06-01T03:24:53.060Z,1015.79
2019-06-01T03:25:53.017Z,1015.80
2019-06-01T03:26:53.038Z,1015.78
2019-06-01T03:27:53.001Z,1015.79
2019-06-01T03:28:52.983Z,1015.80
2019-06-01T03:29:52.971Z,1015.74
2019-06-01T03:30:52.970Z,1015.78
2019-06-01T03:31:52.980Z,1015.77
2019-06-01T03:32:52.937Z,1015.78
2019-06-01T03:33:52.926Z,1015.76
2019-06-01T03:34:52.915Z,1015.79
2019-06-01T03:35:52.902Z,1015.76
2019-06-01T03:36:56.116Z,1015.74
2019-06-01T03:37:52.890Z,1015.75
2019-06-01T03:38:52.871Z,1015.75
2019-06-01T03:39:52.862Z,1015.75
2019-06-01T03:40:52.847Z,1015.70
2019-06-01T03:41:52.847Z,1015.76
2019-06-01T03:42:52.856Z,1015.76
2019-06-01T03:43:52.815Z,1015.73
2019-06-01T03:44:52.801Z,1015.72
2019-06-01T03:45:52.791Z,1015.71
2019-06-01T03:46:52.785Z,1015.71
2019-06-01T03:47:52.769Z,1015.68
2019-06-01T03:48:52.800Z,1015.70
2019-06-01T03:49:52.744Z,1015.69
2019-06-01T03:50:52.736Z,1015.68
2019-06-01T03:51:52.719Z,1015.72
2019-06-01T03:52:52.714Z,1015.75
2019-06-01T03:53:52.717Z,1015.75
2019-06-01T03:54:52.734Z,1015.75
2019-06-01T03:55:52.677Z,1015.74
2019-06-01T03:56:52.663Z,1015.74
2019-06-01T03:57:52.654Z,1015.72
2019-06-01T03:58:52.643Z,1015.78
2019-06-01T03:59:52.635Z,1015.72
2019-06-01T04:00:52.816Z,1015.72
2019-06-01T04:01:52.606Z,1015.74
2019-06-01T04:02:52.602Z,1015.72
2019-06-01T04:03:52.584Z,1015.73
2019-06-01T04:04:52.575Z,1015.78
2019-06-01T04:05:52.569Z,1015.75
2019-06-01T04:06:52.594Z,1015.73
2019-06-01T04:07:52.539Z,1015.77
2019-06-01T04:08:52.562Z,1015.81
2019-06-01T04:09:52.516Z,1015.79
2019-06-01T04:10:52.506Z,1015.81
2019-06-01T04:11:52.493Z,1015.84
2019-06-01T04:12:52.482Z,1015.86
2019-06-01T04:13:52.512Z,1015.86
2019-06-01T04:14:52.460Z,1015.89
2019-06-01T04:15:52.448Z,1015.94
2019-06-01T04:16:52.468Z,1015.93
2019-06-01T04:17:52.428Z,1016.02
2019-06-01T04:18:52.419Z,1015.98
2019-06-01T04:19:52.438Z,1015.96
2019-06-01T04:20:52.394Z,1016.00
2019-06-01T04:21:52.379Z,1015.95
2019-06-01T04:22:52.367Z,1015.94
2019-06-01T04:23:52.359Z,1015.94
2019-06-01T04:24:52.388Z,1015.98
2019-06-01T04:25:52.345Z,1015.96
2019-06-01T04:26:52.326Z,1016.00
2019-06-01T04:27:52.311Z,1016.00
2019-06-01T04:28:52.302Z,1015.99
2019-06-01T04:29:52.290Z,1016.01
2019-06-01T04:30:52.310Z,1015.98
2019-06-01T04:31:52.297Z,1015.96
2019-06-01T04:32:52.262Z,1015.98
2019-06-01T04:33:52.245Z,1015.96
2019-06-01T04:34:52.265Z,1015.98
2019-06-01T04:35:52.221Z,1015.92
2019-06-01T04:36:52.210Z,1015.94
2019-06-01T04:37:52.211Z,1015.93
2019-06-01T04:38:52.192Z,1015.95
2019-06-01T04:39:52.177Z,1015.96
2019-06-01T04:40:52.197Z,1015.88
2019-06-01T04:41:52.153Z,1015.91
2019-06-01T04:42:52.142Z,1015.88
2019-06-01T04:43:52.133Z,1015.88
2019-06-01T04:44:52.120Z,1015.88
2019-06-01T04:45:52.147Z,1015.90
2019-06-01T04:46:52.097Z,1015.89
2019-06-01T04:47:52.113Z,1015.88
2019-06-01T04:48:52.116Z,1015.88
2019-06-01T04:49:52.068Z,1015.88
2019-06-01T04:50:52.086Z,1015.89
2019-06-01T04:51:52.044Z,1015.87
2019-06-01T04:52:52.066Z,1015.86
2019-06-01T04:53:52.043Z,1015.88
2019-06-01T04:54:52.012Z,1015.88
2019-06-01T04:55:51.999Z,1015.91
2019-06-01T04:56:51.993Z,1015.95
2019-06-01T04:57:52.010Z,1015.95
2019-06-01T04:58:51.963Z,1015.94
2019-06-01T04:59:51.957Z,1015.93
2019-06-01T05:00:51.944Z,1015.94
2019-06-01T05:01:51.938Z,1015.97
2019-06-01T05:03:04.404Z,1015.94
2019-06-01T05:03:52.965Z,1015.95
2019-06-01T05:04:51.923Z,1015.97
2019-06-01T05:05:51.892Z,1015.97
2019-06-01T05:06:51.888Z,1015.99
2019-06-01T05:07:51.872Z,1015.95
2019-06-01T05:08:51.863Z,1015.93
2019-06-01T05:09:51.891Z,1015.90
2019-06-01T05:10:51.864Z,1015.91
2019-06-01T05:11:51.822Z,1015.94
2019-06-01T05:12:51.844Z,1015.92
2019-06-01T05:13:51.805Z,1015.93
2019-06-01T05:14:51.786Z,1015.94
2019-06-01T05:15:51.779Z,1015.92
2019-06-01T05:16:51.775Z,1015.92
2019-06-01T05:17:51.756Z,1015.94
2019-06-01T05:18:51.774Z,1015.92
2019-06-01T05:19:51.735Z,1015.95
2019-06-01T05:20:51.763Z,1015.97
2019-06-01T05:21:51.706Z,1015.99
2019-06-01T05:22:51.703Z,1016.00
2019-06-01T05:23:51.687Z,1016.03
2019-06-01T05:24:51.711Z,1016.00
2019-06-01T05:25:53.318Z,1016.05
2019-06-01T05:26:51.653Z,1016.04
2019-06-01T05:27:51.642Z,1016.06
2019-06-01T05:28:51.641Z,1016.09
2019-06-01T05:29:51.617Z,1016.07
2019-06-01T05:30:51.684Z,1016.08
2019-06-01T05:31:51.600Z,1016.11
2019-06-01T05:32:51.616Z,1016.12
2019-06-01T05:33:51.576Z,1016.12
2019-06-01T05:34:51.579Z,1016.07
2019-06-01T05:35:51.557Z,1016.04
2019-06-01T05:36:51.546Z,1016.02
2019-06-01T05:37:51.569Z,1016.05
2019-06-01T05:38:51.519Z,1016.09
2019-06-01T05:39:51.507Z,1016.08
2019-06-01T05:40:51.496Z,1016.07
2019-06-01T05:41:51.489Z,1016.11
2019-06-01T05:42:51.527Z,1016.07
2019-06-01T05:43:51.492Z,1016.06
2019-06-01T05:44:51.534Z,1016.02
2019-06-01T05:45:51.440Z,1016.01
2019-06-01T05:46:51.438Z,1015.95
2019-06-01T05:47:51.463Z,1015.91
2019-06-01T05:48:51.404Z,1015.90
2019-06-01T05:49:51.406Z,1015.94
2019-06-01T05:50:51.418Z,1015.90
2019-06-01T05:51:51.377Z,1015.91
2019-06-01T05:52:51.363Z,1015.93
2019-06-01T05:53:51.368Z,1015.94
2019-06-01T05:54:51.354Z,1015.94
2019-06-01T05:55:51.372Z,1015.94
2019-06-01T05:56:51.347Z,1015.97
2019-06-01T05:57:51.308Z,1015.97
2019-06-01T05:58:51.308Z,1015.97
2019-06-01T05:59:51.283Z,1015.93
2019-06-01T06:00:51.313Z,1015.93
2019-06-01T06:01:51.261Z,1015.94
2019-06-01T06:02:51.294Z,1015.92
2019-06-01T06:03:51.243Z,1015.93
2019-06-01T06:04:53.882Z,1015.96
2019-06-01T06:05:51.215Z,1016.00
2019-06-01T06:06:51.257Z,1015.96
2019-06-01T06:07:51.297Z,1015.92
2019-06-01T06:08:51.205Z,1015.93
2019-06-01T06:09:51.176Z,1015.95
2019-06-01T06:10:51.167Z,1015.95
2019-06-01T06:11:53.859Z,1015.95
2019-06-01T06:12:51.179Z,1015.95
2019-06-01T06:13:51.129Z,1015.90
2019-06-01T06:14:51.161Z,1015.89
2019-06-01T06:15:51.106Z,1015.84
2019-06-01T06:16:51.096Z,1015.90
2019-06-01T06:17:51.079Z,1015.90
2019-06-01T06:18:51.080Z,1015.89
2019-06-01T06:19:51.065Z,1015.89
2019-06-01T06:20:51.085Z,1015.87
2019-06-01T06:21:51.048Z,1015.84
2019-06-01T06:22:51.027Z,1015.87
2019-06-01T06:23:51.011Z,1015.82
2019-06-01T06:24:51.017Z,1015.81
2019-06-01T06:25:51.023Z,1015.76
2019-06-01T06:26:51.022Z,1015.79
2019-06-01T06:27:50.973Z,1015.72
2019-06-01T06:28:50.961Z,1015.74
2019-06-01T06:29:50.949Z,1015.68
2019-06-01T06:30:50.938Z,1015.69
2019-06-01T06:31:50.930Z,1015.66
2019-06-01T06:32:50.946Z,1015.68
2019-06-01T06:33:56.705Z,1015.71
2019-06-01T06:34:51.900Z,1015.67
2019-06-01T06:35:50.883Z,1015.66
2019-06-01T06:36:50.869Z,1015.65
2019-06-01T06:37:50.863Z,1015.60
2019-06-01T06:38:50.884Z,1015.60
2019-06-01T06:39:50.838Z,1015.56
2019-06-01T06:40:50.832Z,1015.51
2019-06-01T06:41:50.868Z,1015.53
2019-06-01T06:42:50.846Z,1015.51
2019-06-01T06:43:50.830Z,1015.53
2019-06-01T06:44:50.786Z,1015.50
2019-06-01T06:45:50.767Z,1015.48
2019-06-01T06:46:50.765Z,1015.49
2019-06-01T06:47:50.755Z,1015.48
2019-06-01T06:48:50.769Z,1015.49
2019-06-01T06:49:50.722Z,1015.49
2019-06-01T06:50:50.748Z,1015.44
2019-06-01T06:51:50.722Z,1015.49
2019-06-01T06:52:50.694Z,1015.47
2019-06-01T06:53:50.685Z,1015.48
2019-06-01T06:54:50.741Z,1015.46
2019-06-01T06:55:50.701Z,1015.44
2019-06-01T06:56:50.651Z,1015.43
2019-06-01T06:57:50.637Z,1015.42
2019-06-01T06:58:50.666Z,1015.47
2019-06-01T06:59:50.623Z,1015.43
2019-06-01T07:00:50.605Z,1015.46
2019-06-01T07:01:50.592Z,1015.44
2019-06-01T07:02:50.583Z,1015.43
2019-06-01T07:03:50.615Z,1015.45
2019-06-01T07:04:50.566Z,1015.46
2019-06-01T07:05:50.549Z,1015.49
2019-06-01T07:06:50.534Z,1015.44
2019-06-01T07:07:50.527Z,1015.47
2019-06-01T07:08:50.531Z,1015.52
2019-06-01T07:09:50.544Z,1015.49
2019-06-01T07:10:50.509Z,1015.52
2019-06-01T07:11:50.486Z,1015.53
2019-06-01T07:12:50.467Z,1015.50
2019-06-01T07:13:50.464Z,1015.54
2019-06-01T07:14:50.492Z,1015.53
2019-06-01T07:15:50.433Z,1015.49
2019-06-01T07:16:50.454Z,1015.47
2019-06-01T07:17:50.425Z,1015.48
2019-06-01T07:18:50.400Z,1015.43
2019-06-01T07:19:50.419Z,1015.41
2019-06-01T07:20:50.381Z,1015.43
2019-06-01T07:21:50.375Z,1015.45
2019-06-01T07:22:50.370Z,1015.43
2019-06-01T07:23:50.351Z,1015.44
2019-06-01T07:24:50.386Z,1015.45
2019-06-01T07:25:50.474Z,1015.45
2019-06-01T07:26:50.316Z,1015.48
2019-06-01T07:27:50.316Z,1015.47
2019-06-01T07:28:50.312Z,1015.49
2019-06-01T07:29:50.306Z,1015.46
2019-06-01T07:30:50.876Z,1015.46
2019-06-01T07:31:50.256Z,1015.52
2019-06-01T07:32:50.252Z,1015.55
2019-06-01T07:33:50.250Z,1015.50
2019-06-01T07:34:50.223Z,1015.52
2019-06-01T07:35:50.246Z,1015.54
2019-06-01T07:36:50.254Z,1015.59
2019-06-01T07:37:50.191Z,1015.59
2019-06-01T07:38:50.182Z,1015.61
2019-06-01T07:39:50.174Z,1015.61
2019-06-01T07:40:50.162Z,1015.58
2019-06-01T07:41:50.256Z,1015.59
2019-06-01T07:42:50.129Z,1015.59
2019-06-01T07:43:50.161Z,1015.64
2019-06-01T07:44:50.111Z,1015.60
2019-06-01T07:45:50.105Z,1015.63
2019-06-01T07:46:50.083Z,1015.60
2019-06-01T07:47:50.103Z,1015.58
2019-06-01T07:48:50.062Z,1015.60
2019-06-01T07:49:50.049Z,1015.58
2019-06-01T07:50:50.058Z,1015.52
2019-06-01T07:51:50.128Z,1015.48
2019-06-01T07:52:50.052Z,1015.48
2019-06-01T07:53:50.038Z,1015.48
2019-06-01T07:54:50.037Z,1015.46
2019-06-01T07:55:49.988Z,1015.45
2019-06-01T07:56:49.971Z,1015.42
2019-06-01T07:57:49.965Z,1015.40
2019-06-01T07:58:49.947Z,1015.40
2019-06-01T07:59:49.993Z,1015.40
2019-06-01T08:00:49.982Z,1015.38
2019-06-01T08:01:49.921Z,1015.36
2019-06-01T08:02:49.914Z,1015.37
2019-06-01T08:03:49.901Z,1015.37
2019-06-01T08:04:54.121Z,1015.36
2019-06-01T08:05:49.878Z,1015.37
2019-06-01T08:06:49.941Z,1015.37
2019-06-01T08:07:49.852Z,1015.33
2019-06-01T08:08:49.852Z,1015.39
2019-06-01T08:09:49.830Z,1015.39
2019-06-01T08:10:49.817Z,1015.39
2019-06-01T08:11:49.829Z,1015.39
2019-06-01T08:12:49.842Z,1015.36
2019-06-01T08:13:49.819Z,1015.32
2019-06-01T08:14:49.776Z,1015.34
2019-06-01T08:15:49.767Z,1015.32
2019-06-01T08:16:49.756Z,1015.34
2019-06-01T08:17:49.779Z,1015.37
2019-06-01T08:18:53.143Z,1015.38
2019-06-01T08:19:51.871Z,1015.33
2019-06-01T08:20:49.711Z,1015.39
2019-06-01T08:21:49.786Z,1015.35
2019-06-01T08:22:49.725Z,1015.39
2019-06-01T08:23:49.687Z,1015.37
2019-06-01T08:24:49.666Z,1015.35
2019-06-01T08:25:49.662Z,1015.33
2019-06-01T08:26:49.649Z,1015.34
2019-06-01T08:27:49.665Z,1015.36
2019-06-01T08:28:49.628Z,1015.34
2019-06-01T08:29:49.614Z,1015.33
2019-06-01T08:30:49.651Z,1015.27
2019-06-01T08:31:49.598Z,1015.27
2019-06-01T08:32:49.576Z,1015.27
2019-06-01T08:33:49.569Z,1015.26
2019-06-01T08:34:49.557Z,1015.24
2019-06-01T08:35:49.546Z,1015.25
2019-06-01T08:36:49.574Z,1015.25
2019-06-01T08:37:49.539Z,1015.25
2019-06-01T08:38:49.538Z,1015.23
2019-06-01T08:39:49.498Z,1015.20
2019-06-01T08:40:49.527Z,1015.20
2019-06-01T08:41:49.488Z,1015.18
2019-06-01T08:42:49.502Z,1015.16
2019-06-01T08:43:49.466Z,1015.17
2019-06-01T08:44:49.443Z,1015.19
2019-06-01T08:45:49.446Z,1015.17
2019-06-01T08:46:49.424Z,1015.14
2019-06-01T08:47:49.420Z,1015.18
2019-06-01T08:48:49.433Z,1015.18
2019-06-01T08:49:49.400Z,1015.17
2019-06-01T08:50:49.371Z,1015.16
2019-06-01T08:51:49.363Z,1015.24
2019-06-01T08:52:49.382Z,1015.21
2019-06-01T08:53:49.392Z,1015.18
2019-06-01T08:54:49.338Z,1015.19
2019-06-01T08:55:49.330Z,1015.16
2019-06-01T08:56:49.305Z,1015.22
2019-06-01T08:57:49.302Z,1015.21
2019-06-01T08:58:49.313Z,1015.22
2019-06-01T08:59:49.337Z,1015.23
2019-06-01T09:00:49.271Z,1015.22
2019-06-01T09:01:49.248Z,1015.18
2019-06-01T09:02:49.253Z,1015.20
2019-06-01T09:03:49.244Z,1015.18
2019-06-01T09:04:49.237Z,1015.20
2019-06-01T09:05:49.261Z,1015.16
2019-06-01T09:06:49.198Z,1015.17
2019-06-01T09:07:49.181Z,1015.17
2019-06-01T09:08:49.177Z,1015.17
2019-06-01T09:09:49.159Z,1015.15
2019-06-01T09:10:49.170Z,1015.12
2019-06-01T09:11:49.166Z,1015.07
2019-06-01T09:12:49.129Z,1015.10
2019-06-01T09:13:52.186Z,1015.09
2019-06-01T09:14:49.099Z,1015.03
2019-06-01T09:15:49.096Z,1015.02
2019-06-01T09:16:49.084Z,1015.01
2019-06-01T09:17:49.128Z,1015.03
2019-06-01T09:18:49.093Z,1015.04
2019-06-01T09:19:49.092Z,1015.03
2019-06-01T09:20:49.066Z,1015.02
2019-06-01T09:21:49.035Z,1015.01
2019-06-01T09:22:49.024Z,1015.01
2019-06-01T09:23:49.032Z,1014.97
2019-06-01T09:24:53.137Z,1014.98
2019-06-01T09:25:48.980Z,1014.96
2019-06-01T09:26:48.972Z,1015.02
2019-06-01T09:27:49.246Z,1014.98
2019-06-01T09:28:49.271Z,1014.98
2019-06-01T09:29:48.978Z,1014.94
2019-06-01T09:30:48.979Z,1014.88
2019-06-01T09:31:48.952Z,1014.86
2019-06-01T09:32:48.911Z,1014.87
2019-06-01T09:33:48.900Z,1014.85
2019-06-01T09:34:48.885Z,1014.86
2019-06-01T09:35:55.814Z,1014.90
2019-06-01T09:36:49.909Z,1014.86
2019-06-01T09:37:48.883Z,1014.83
2019-06-01T09:38:49.007Z,1014.83
2019-06-01T09:39:48.839Z,1014.81
2019-06-01T09:40:48.850Z,1014.79
2019-06-01T09:41:48.802Z,1014.81
2019-06-01T09:42:48.797Z,1014.85
2019-06-01T09:43:48.782Z,1014.82
2019-06-01T09:44:48.804Z,1014.79
2019-06-01T09:45:53.051Z,1014.82
2019-06-01T09:46:48.757Z,1014.83
2019-06-01T09:47:48.736Z,1014.78
2019-06-01T09:48:48.726Z,1014.80
2019-06-01T09:49:48.719Z,1014.77
2019-06-01T09:50:48.767Z,1014.79
2019-06-01T09:51:48.749Z,1014.77
2019-06-01T09:52:48.714Z,1014.76
2019-06-01T09:53:48.677Z,1014.77
2019-06-01T09:54:48.734Z,1014.76
2019-06-01T09:55:48.648Z,1014.68
2019-06-01T09:56:48.644Z,1014.72
2019-06-01T09:57:48.662Z,1014.69
2019-06-01T09:58:48.629Z,1014.68
2019-06-01T09:59:48.609Z,1014.72
2019-06-01T10:00:48.688Z,1014.67
2019-06-01T10:01:48.615Z,1014.64
2019-06-01T10:02:48.575Z,1014.66
2019-06-01T10:03:48.594Z,1014.65
2019-06-01T10:04:48.578Z,1014.66
2019-06-01T10:06:01.480Z,1014.58
2019-06-01T10:06:49.532Z,1014.64
2019-06-01T10:07:48.557Z,1014.63
2019-06-01T10:08:48.507Z,1014.64
2019-06-01T10:09:48.527Z,1014.65
2019-06-01T10:10:48.518Z,1014.68
2019-06-01T10:11:48.828Z,1014.67
2019-06-01T10:12:48.477Z,1014.71
2019-06-01T10:13:48.498Z,1014.71
2019-06-01T10:14:48.447Z,1014.69
2019-06-01T10:15:48.469Z,1014.71
2019-06-01T10:16:48.429Z,1014.71
2019-06-01T10:17:48.422Z,1014.69
2019-06-01T10:18:48.402Z,1014.65
2019-06-01T10:19:48.431Z,1014.67
2019-06-01T10:20:48.415Z,1014.66
2019-06-01T10:21:48.376Z,1014.62
2019-06-01T10:22:48.395Z,1014.72
2019-06-01T10:23:49.873Z,1014.70
2019-06-01T10:24:48.341Z,1014.66
2019-06-01T10:25:48.371Z,1014.66
2019-06-01T10:26:48.388Z,1014.61
2019-06-01T10:27:48.347Z,1014.58
2019-06-01T10:28:48.331Z,1014.61
2019-06-01T10:29:48.333Z,1014.62
2019-06-01T10:30:48.293Z,1014.55
2019-06-01T10:31:48.258Z,1014.57
2019-06-01T10:32:48.320Z,1014.51
2019-06-01T10:33:51.362Z,1014.57
2019-06-01T10:34:48.262Z,1014.57
2019-06-01T10:35:48.211Z,1014.52
2019-06-01T10:36:48.205Z,1014.51
2019-06-01T10:37:48.197Z,1014.47
2019-06-01T10:38:48.179Z,1014.52
2019-06-01T10:39:48.225Z,1014.48
2019-06-01T10:40:48.165Z,1014.49
2019-06-01T10:41:48.150Z,1014.52
2019-06-01T10:42:48.134Z,1014.48
2019-06-01T10:43:48.127Z,1014.50
2019-06-01T10:44:48.127Z,1014.48
2019-06-01T10:45:48.137Z,1014.51
2019-06-01T10:46:48.117Z,1014.45
2019-06-01T10:47:48.085Z,1014.47
2019-06-01T10:48:48.075Z,1014.45
2019-06-01T10:49:48.058Z,1014.50
2019-06-01T10:50:48.068Z,1014.47
2019-06-01T10:51:48.070Z,1014.43
2019-06-01T10:52:48.062Z,1014.34
2019-06-01T10:53:48.034Z,1014.35
2019-06-01T10:54:48.005Z,1014.34
2019-06-01T10:55:48.014Z,1014.31
2019-06-01T10:56:48.020Z,1014.32
2019-06-01T10:57:48.005Z,1014.32
2019-06-01T10:58:59.232Z,1014.31
2019-06-01T10:59:49.004Z,1014.32
2019-06-01T11:00:51.088Z,1014.32
2019-06-01T11:01:47.966Z,1014.34
2019-06-01T11:02:47.917Z,1014.28
2019-06-01T11:03:47.904Z,1014.30
2019-06-01T11:04:47.898Z,1014.28
2019-06-01T11:05:47.891Z,1014.31
2019-06-01T11:06:48.933Z,1014.32
2019-06-01T11:07:47.870Z,1014.30
2019-06-01T11:08:47.913Z,1014.31
2019-06-01T11:09:47.842Z,1014.32
2019-06-01T11:10:47.830Z,1014.29
2019-06-01T11:11:47.817Z,1014.30
2019-06-01T11:12:47.857Z,1014.28
2019-06-01T11:13:47.816Z,1014.27
2019-06-01T11:14:47.882Z,1014.23
2019-06-01T11:15:47.778Z,1014.21
2019-06-01T11:16:54.892Z,1014.20
2019-06-01T11:17:48.806Z,1014.17
2019-06-01T11:18:48.119Z,1014.17
2019-06-01T11:19:47.738Z,1014.15
2019-06-01T11:20:47.720Z,1014.16
2019-06-01T11:21:47.749Z,1014.09
2019-06-01T11:22:47.703Z,1014.08
2019-06-01T11:23:47.685Z,1014.10
2019-06-01T11:24:47.704Z,1014.12
2019-06-01T11:25:47.667Z,1014.12
2019-06-01T11:26:47.658Z,1014.09
2019-06-01T11:27:47.683Z,1014.09
2019-06-01T11:28:47.630Z,1014.06
2019-06-01T11:29:51.425Z,1014.05
2019-06-01T11:30:47.623Z,1014.01
2019-06-01T11:31:47.609Z,1014.00
2019-06-01T11:32:47.589Z,1014.00
2019-06-01T11:33:47.575Z,1013.98
2019-06-01T11:34:47.562Z,1013.94
2019-06-01T11:35:47.580Z,1013.95
2019-06-01T11:37:04.294Z,1013.96
2019-06-01T11:37:48.548Z,1013.93
2019-06-01T11:38:47.586Z,1013.98
2019-06-01T11:39:47.517Z,1013.91
2019-06-01T11:40:47.502Z,1013.90
2019-06-01T11:41:47.554Z,1013.88
2019-06-01T11:42:47.486Z,1013.87
2019-06-01T11:43:47.467Z,1013.85
2019-06-01T11:44:47.489Z,1013.81
2019-06-01T11:45:47.455Z,1013.83
2019-06-01T11:46:47.447Z,1013.78
2019-06-01T11:47:47.422Z,1013.80
2019-06-01T11:48:47.407Z,1013.82
2019-06-01T11:49:47.402Z,1013.77
2019-06-01T11:50:47.444Z,1013.80
2019-06-01T11:51:47.422Z,1013.77
2019-06-01T11:52:47.396Z,1013.75
2019-06-01T11:53:47.359Z,1013.78
2019-06-01T11:54:47.386Z,1013.72
2019-06-01T11:55:47.330Z,1013.71
2019-06-01T11:56:47.326Z,1013.64
2019-06-01T11:57:47.315Z,1013.68
2019-06-01T11:58:47.340Z,1013.72
2019-06-01T11:59:47.292Z,1013.71
2019-06-01T12:00:47.281Z,1013.75
2019-06-01T12:01:47.268Z,1013.74
2019-06-01T12:02:47.306Z,1013.67
2019-06-01T12:03:47.354Z,1013.63
2019-06-01T12:04:47.234Z,1013.63